Miami Lakes, Florida
Current Conditions -  °F | °C
As of 5:53 AM on Thursday 23 Oct 2014 (Local Time) from KOPF Reporting Station
Clear Clear  
Wind Chill: 74°   Ceiling: Unl
Heat Index: 74°   Visibility: 10mi
Dew Point: 71°   Wind: 3mph
Humidity: 91%   Direction: 360°N
Pressure: 29.89"   Gusts: NA
Location:  25.9357°N, 80.3817°W
Report Text: KOPF 230953Z AUTO 36003KT 10SM CLR 23/22 A2989 RMK AO2 SLP123 T02330217
Loading
Personal Weather Stations






























Interactive Weather Map
Tropical Storm Tracking
New forecast layout! Learn more

10-Day Weather Forecast

Advertisements
Track Severe Weather on mobile